createdAt,value
2019-01-25T00:00:21.602Z,32.17
2019-01-25T00:01:23.037Z,32.55
2019-01-25T00:02:24.488Z,32.35
2019-01-25T00:03:25.918Z,32.13
2019-01-25T00:04:27.374Z,32.98
2019-01-25T00:05:28.855Z,31.87
2019-01-25T00:06:30.274Z,32.70
2019-01-25T00:07:31.713Z,31.35
2019-01-25T00:08:33.223Z,31.90
2019-01-25T00:09:34.693Z,33.53
2019-01-25T00:10:36.140Z,32.93
2019-01-25T00:11:37.577Z,34.10
2019-01-25T00:12:39.042Z,33.75
2019-01-25T00:13:40.501Z,32.42
2019-01-25T00:14:41.982Z,34.48
2019-01-25T00:15:43.422Z,31.87
2019-01-25T00:16:44.871Z,33.13
2019-01-25T00:17:46.391Z,31.02
2019-01-25T00:18:47.820Z,31.02
2019-01-25T00:19:49.286Z,32.08
2019-01-25T00:20:50.822Z,31.50
2019-01-25T00:21:52.269Z,32.17
2019-01-25T00:22:53.755Z,31.68
2019-01-25T00:23:55.257Z,30.45
2019-01-25T00:24:57.020Z,30.25
2019-01-25T00:25:58.589Z,30.88
2019-01-25T00:27:00.024Z,31.65
2019-01-25T00:28:01.453Z,30.68
2019-01-25T00:29:02.965Z,30.43
2019-01-25T00:30:08.151Z,30.60
2019-01-25T00:31:09.705Z,31.35
2019-01-25T00:32:11.276Z,31.25
2019-01-25T00:33:12.718Z,30.88
2019-01-25T00:34:14.149Z,30.45
2019-01-25T00:35:15.580Z,31.00
2019-01-25T00:36:17.118Z,30.80
2019-01-25T00:37:18.769Z,30.82
2019-01-25T00:38:20.184Z,30.70
2019-01-25T00:39:21.613Z,31.35
2019-01-25T00:40:23.132Z,31.05
2019-01-25T00:41:24.564Z,33.25
2019-01-25T00:42:26.036Z,30.27
2019-01-25T00:43:27.490Z,32.60
2019-01-25T00:44:28.943Z,29.67
2019-01-25T00:45:30.367Z,30.43
2019-01-25T00:46:31.806Z,31.50
2019-01-25T00:47:33.277Z,30.12
2019-01-25T00:48:34.817Z,30.15
2019-01-25T00:49:36.288Z,32.08
2019-01-25T00:50:37.981Z,31.87
2019-01-25T00:51:39.526Z,31.45
2019-01-25T00:52:40.950Z,31.97
2019-01-25T00:53:42.386Z,31.23
2019-01-25T00:54:43.829Z,32.35
2019-01-25T00:55:46.849Z,32.23
2019-01-25T00:56:48.321Z,33.08
2019-01-25T00:57:49.790Z,32.13
2019-01-25T00:58:51.221Z,32.65
2019-01-25T00:59:52.665Z,32.50
2019-01-25T01:00:54.162Z,30.88
2019-01-25T01:01:55.614Z,31.35
2019-01-25T01:02:57.107Z,29.90
2019-01-25T01:03:58.554Z,31.00
2019-01-25T01:05:00.208Z,31.48
2019-01-25T01:06:01.911Z,31.42
2019-01-25T01:07:03.732Z,30.75
2019-01-25T01:08:05.776Z,32.03
2019-01-25T01:09:07.542Z,31.48
2019-01-25T01:10:14.060Z,34.23
2019-01-25T01:11:13.435Z,33.00
2019-01-25T01:12:15.404Z,33.20
2019-01-25T01:13:16.974Z,32.28
2019-01-25T01:14:19.004Z,31.68
2019-01-25T01:15:21.093Z,30.77
2019-01-25T01:16:22.749Z,30.37
2019-01-25T01:17:24.436Z,33.05
2019-01-25T01:18:26.435Z,30.45
2019-01-25T01:19:28.230Z,32.05
2019-01-25T01:20:29.986Z,31.27
2019-01-25T01:21:31.508Z,30.37
2019-01-25T01:22:32.955Z,30.05
2019-01-25T01:23:34.526Z,32.20
2019-01-25T01:24:36.484Z,29.80
2019-01-25T01:25:38.409Z,31.02
2019-01-25T01:26:40.018Z,30.80
2019-01-25T01:27:41.853Z,30.77
2019-01-25T01:28:43.799Z,30.25
2019-01-25T01:29:45.726Z,30.00
2019-01-25T01:30:47.491Z,30.57
2019-01-25T01:31:49.299Z,30.82
2019-01-25T01:32:50.727Z,30.23
2019-01-25T01:33:52.199Z,31.10
2019-01-25T01:34:53.651Z,30.60
2019-01-25T01:35:55.083Z,31.87
2019-01-25T01:36:56.519Z,32.40
2019-01-25T01:37:57.948Z,30.00
2019-01-25T01:38:59.428Z,30.02
2019-01-25T01:40:00.878Z,30.57
2019-01-25T01:41:02.324Z,30.37
2019-01-25T01:42:03.777Z,30.45
2019-01-25T01:43:05.210Z,28.17
2019-01-25T01:44:06.668Z,28.40
2019-01-25T01:45:08.274Z,30.40
2019-01-25T01:46:09.713Z,29.70
2019-01-25T01:47:11.182Z,28.55
2019-01-25T01:48:12.653Z,30.48
2019-01-25T01:49:14.074Z,30.43
2019-01-25T01:50:18.690Z,28.47
2019-01-25T01:51:20.154Z,30.55
2019-01-25T01:52:21.588Z,29.92
2019-01-25T01:53:23.088Z,30.17
2019-01-25T01:54:24.525Z,29.95
2019-01-25T01:55:25.953Z,30.02
2019-01-25T01:56:27.390Z,29.82
2019-01-25T01:57:28.818Z,29.05
2019-01-25T01:58:30.338Z,28.92
2019-01-25T01:59:31.790Z,30.12
2019-01-25T02:00:33.212Z,31.02
2019-01-25T02:01:34.651Z,30.00
2019-01-25T02:02:36.149Z,30.15
2019-01-25T02:03:37.612Z,29.35
2019-01-25T02:04:39.252Z,29.42
2019-01-25T02:05:40.677Z,30.45
2019-01-25T02:06:42.120Z,30.05
2019-01-25T02:07:43.570Z,29.55
2019-01-25T02:08:45.013Z,29.20
2019-01-25T02:09:46.474Z,31.10
2019-01-25T02:10:47.983Z,29.27
2019-01-25T02:11:49.435Z,29.15
2019-01-25T02:12:50.908Z,30.10
2019-01-25T02:13:52.371Z,28.98
2019-01-25T02:14:53.782Z,29.27
2019-01-25T02:15:55.217Z,28.85
2019-01-25T02:16:56.701Z,29.02
2019-01-25T02:17:58.121Z,29.20
2019-01-25T02:18:59.561Z,29.20
2019-01-25T02:20:01.059Z,29.37
2019-01-25T02:21:02.564Z,29.12
2019-01-25T02:22:04.082Z,30.23
2019-01-25T02:23:05.502Z,29.02
2019-01-25T02:24:07.006Z,28.95
2019-01-25T02:25:08.440Z,29.63
2019-01-25T02:26:09.913Z,29.98
2019-01-25T02:27:11.336Z,28.57
2019-01-25T02:28:12.807Z,29.50
2019-01-25T02:29:14.361Z,28.92
2019-01-25T02:30:23.370Z,29.63
2019-01-25T02:31:24.814Z,28.47
2019-01-25T02:32:26.239Z,30.23
2019-01-25T02:33:27.665Z,28.25
2019-01-25T02:34:29.131Z,28.80
2019-01-25T02:35:30.574Z,30.55
2019-01-25T02:36:32.009Z,28.75
2019-01-25T02:37:33.450Z,28.32
2019-01-25T02:38:34.890Z,28.95
2019-01-25T02:39:36.367Z,28.12
2019-01-25T02:40:38.812Z,27.85
2019-01-25T02:41:41.039Z,29.32
2019-01-25T02:42:42.542Z,27.02
2019-01-25T02:43:44.067Z,28.52
2019-01-25T02:44:45.531Z,28.75
2019-01-25T02:45:46.975Z,27.87
2019-01-25T02:46:48.400Z,28.67
2019-01-25T02:47:49.889Z,29.67
2019-01-25T02:48:51.372Z,29.82
2019-01-25T02:49:52.836Z,30.00
2019-01-25T02:50:54.406Z,28.20
2019-01-25T02:51:55.845Z,28.30
2019-01-25T02:53:03.710Z,31.48
2019-01-25T02:54:00.770Z,29.63
2019-01-25T02:55:02.259Z,28.47
2019-01-25T02:56:05.479Z,29.77
2019-01-25T02:57:07.045Z,28.83
2019-01-25T02:58:08.471Z,29.35
2019-01-25T02:59:09.914Z,29.25
2019-01-25T03:00:20.021Z,29.32
2019-01-25T03:01:21.472Z,28.83
2019-01-25T03:02:22.997Z,29.87
2019-01-25T03:03:24.418Z,30.72
2019-01-25T03:04:25.913Z,31.82
2019-01-25T03:05:27.355Z,32.88
2019-01-25T03:06:28.804Z,31.05
2019-01-25T03:07:30.222Z,32.05
2019-01-25T03:08:31.644Z,31.50
2019-01-25T03:09:33.105Z,32.78
2019-01-25T03:10:34.537Z,30.68
2019-01-25T03:11:36.018Z,32.13
2019-01-25T03:12:37.453Z,30.08
2019-01-25T03:13:38.897Z,29.60
2019-01-25T03:14:40.352Z,30.40
2019-01-25T03:15:41.788Z,29.98
2019-01-25T03:16:43.215Z,32.28
2019-01-25T03:17:44.660Z,30.45
2019-01-25T03:18:46.081Z,30.72
2019-01-25T03:19:47.526Z,30.92
2019-01-25T03:20:48.974Z,32.08
2019-01-25T03:21:50.433Z,31.15
2019-01-25T03:22:51.899Z,31.12
2019-01-25T03:23:53.321Z,31.50
2019-01-25T03:24:54.950Z,31.77
2019-01-25T03:25:56.398Z,31.80
2019-01-25T03:26:57.825Z,30.65
2019-01-25T03:27:59.306Z,30.40
2019-01-25T03:29:00.733Z,30.00
2019-01-25T03:30:22.718Z,30.60
2019-01-25T03:31:24.536Z,30.60
2019-01-25T03:32:26.025Z,30.25
2019-01-25T03:33:27.496Z,30.00
2019-01-25T03:34:28.910Z,30.37
2019-01-25T03:35:30.406Z,30.20
2019-01-25T03:36:31.823Z,31.23
2019-01-25T03:37:33.256Z,31.00
2019-01-25T03:38:34.716Z,31.48
2019-01-25T03:39:36.268Z,32.63
2019-01-25T03:40:37.693Z,31.35
2019-01-25T03:41:39.145Z,31.40
2019-01-25T03:42:40.635Z,29.55
2019-01-25T03:43:42.143Z,30.30
2019-01-25T03:44:43.586Z,29.80
2019-01-25T03:45:45.021Z,31.52
2019-01-25T03:46:46.457Z,31.20
2019-01-25T03:47:48.282Z,31.07
2019-01-25T03:48:49.939Z,30.95
2019-01-25T03:49:51.379Z,30.08
2019-01-25T03:50:52.871Z,30.43
2019-01-25T03:51:54.298Z,30.20
2019-01-25T03:52:55.754Z,31.87
2019-01-25T03:53:57.191Z,32.48
2019-01-25T03:54:58.660Z,30.65
2019-01-25T03:56:00.081Z,31.55
2019-01-25T03:57:01.523Z,30.90
2019-01-25T03:58:03.227Z,30.95
2019-01-25T03:59:04.693Z,30.75
2019-01-25T04:00:12.230Z,30.23
2019-01-25T04:01:13.662Z,31.68
2019-01-25T04:02:15.118Z,29.77
2019-01-25T04:03:16.532Z,30.95
2019-01-25T04:04:18.029Z,32.67
2019-01-25T04:05:19.514Z,31.05
2019-01-25T04:06:20.958Z,31.05
2019-01-25T04:07:22.406Z,31.40
2019-01-25T04:08:23.829Z,29.67
2019-01-25T04:09:25.292Z,30.10
2019-01-25T04:10:27.497Z,30.88
2019-01-25T04:11:29.018Z,30.80
2019-01-25T04:12:30.442Z,28.65
2019-01-25T04:13:31.896Z,30.30
2019-01-25T04:14:33.480Z,29.87
2019-01-25T04:15:35.031Z,30.68
2019-01-25T04:16:36.467Z,32.38
2019-01-25T04:17:37.902Z,31.87
2019-01-25T04:18:39.423Z,29.80
2019-01-25T04:19:40.859Z,31.65
2019-01-25T04:20:42.349Z,33.02
2019-01-25T04:21:43.785Z,32.85
2019-01-25T04:22:45.252Z,32.25
2019-01-25T04:23:46.982Z,32.08
2019-01-25T04:24:48.409Z,32.20
2019-01-25T04:25:50.068Z,31.68
2019-01-25T04:26:51.519Z,30.92
2019-01-25T04:27:53.158Z,30.60
2019-01-25T04:28:56.079Z,29.87
2019-01-25T04:29:57.571Z,30.82
2019-01-25T04:30:59.213Z,30.85
2019-01-25T04:32:00.687Z,31.87
2019-01-25T04:33:02.232Z,31.00
2019-01-25T04:34:03.705Z,32.10
2019-01-25T04:35:05.401Z,31.05
2019-01-25T04:36:06.887Z,30.92
2019-01-25T04:37:08.330Z,31.27
2019-01-25T04:38:09.755Z,31.33
2019-01-25T04:39:11.195Z,30.95
2019-01-25T04:40:16.760Z,30.05
2019-01-25T04:41:18.250Z,31.57
2019-01-25T04:42:19.743Z,30.43
2019-01-25T04:43:21.170Z,31.40
2019-01-25T04:44:22.624Z,31.40
2019-01-25T04:45:24.352Z,30.32
2019-01-25T04:46:25.967Z,31.30
2019-01-25T04:47:27.521Z,32.45
2019-01-25T04:48:29.001Z,31.40
2019-01-25T04:49:31.128Z,31.70
2019-01-25T04:50:32.573Z,29.85
2019-01-25T04:51:34.016Z,30.95
2019-01-25T04:52:35.471Z,31.93
2019-01-25T04:53:36.955Z,29.50
2019-01-25T04:54:38.379Z,30.82
2019-01-25T04:55:39.821Z,30.68
2019-01-25T04:56:41.300Z,31.87
2019-01-25T04:57:42.737Z,31.33
2019-01-25T04:58:44.222Z,31.70
2019-01-25T04:59:45.758Z,32.25
2019-01-25T05:00:47.287Z,31.62
2019-01-25T05:01:49.165Z,31.15
2019-01-25T05:02:58.882Z,31.87
2019-01-25T05:04:00.404Z,30.57
2019-01-25T05:05:01.847Z,31.45
2019-01-25T05:06:04.015Z,30.30
2019-01-25T05:07:05.460Z,33.48
2019-01-25T05:08:11.818Z,31.02
2019-01-25T05:09:13.264Z,30.82
2019-01-25T05:10:14.722Z,31.73
2019-01-25T05:11:20.076Z,30.88
2019-01-25T05:12:19.603Z,32.20
2019-01-25T05:13:21.014Z,31.07
2019-01-25T05:14:22.446Z,31.75
2019-01-25T05:15:23.894Z,30.25
2019-01-25T05:16:25.377Z,30.25
2019-01-25T05:17:26.846Z,31.97
2019-01-25T05:18:28.572Z,29.90
2019-01-25T05:19:37.568Z,31.10
2019-01-25T05:20:39.009Z,29.85
2019-01-25T05:21:40.425Z,30.62
2019-01-25T05:22:42.004Z,31.17
2019-01-25T05:23:43.459Z,31.70
2019-01-25T05:24:44.902Z,32.08
2019-01-25T05:25:46.356Z,31.12
2019-01-25T05:26:47.794Z,30.40
2019-01-25T05:27:49.854Z,28.83
2019-01-25T05:28:51.284Z,30.97
2019-01-25T05:29:52.917Z,30.35
2019-01-25T05:30:58.502Z,30.82
2019-01-25T05:32:02.538Z,29.05
2019-01-25T05:33:04.044Z,31.25
2019-01-25T05:34:05.474Z,30.62
2019-01-25T05:35:06.917Z,31.65
2019-01-25T05:36:08.342Z,30.45
2019-01-25T05:37:10.940Z,31.25
2019-01-25T05:38:12.365Z,31.27
2019-01-25T05:39:13.844Z,31.62
2019-01-25T05:40:22.663Z,31.93
2019-01-25T05:41:28.498Z,30.60
2019-01-25T05:42:27.438Z,28.80
2019-01-25T05:43:36.674Z,32.90
2019-01-25T05:44:38.319Z,30.20
2019-01-25T05:45:43.972Z,31.37
2019-01-25T05:46:45.394Z,30.35
2019-01-25T05:47:46.848Z,30.70
2019-01-25T05:48:48.289Z,31.35
2019-01-25T05:49:50.074Z,30.00
2019-01-25T05:50:51.524Z,28.75
2019-01-25T05:51:53.025Z,29.72
2019-01-25T05:52:54.472Z,29.55
2019-01-25T05:53:55.941Z,30.95
2019-01-25T05:54:57.405Z,31.23
2019-01-25T05:55:58.873Z,29.87
2019-01-25T05:57:00.422Z,30.10
2019-01-25T05:58:03.788Z,31.27
2019-01-25T05:59:05.243Z,31.48
2019-01-25T06:00:10.807Z,30.95
2019-01-25T06:01:12.281Z,31.60
2019-01-25T06:02:13.703Z,30.45
2019-01-25T06:03:15.146Z,31.25
2019-01-25T06:04:16.612Z,30.35
2019-01-25T06:05:18.057Z,27.65
2019-01-25T06:06:19.548Z,30.17
2019-01-25T06:07:25.282Z,31.73
2019-01-25T06:08:29.990Z,29.77
2019-01-25T06:09:31.423Z,29.75
2019-01-25T06:10:32.861Z,28.45
2019-01-25T06:11:35.754Z,28.47
2019-01-25T06:12:37.248Z,27.60
2019-01-25T06:13:38.671Z,28.12
2019-01-25T06:14:40.163Z,28.20
2019-01-25T06:15:41.613Z,26.48
2019-01-25T06:16:43.079Z,25.72
2019-01-25T06:17:44.516Z,28.85
2019-01-25T06:18:46.004Z,27.35
2019-01-25T06:19:47.565Z,27.67
2019-01-25T06:20:51.197Z,26.97
2019-01-25T06:21:54.986Z,24.72
2019-01-25T06:23:16.197Z,26.23
2019-01-25T06:24:17.669Z,24.57
2019-01-25T06:25:19.441Z,25.05
2019-01-25T06:26:20.887Z,26.25
2019-01-25T06:27:22.370Z,25.02
2019-01-25T06:28:23.842Z,25.45
2019-01-25T06:29:26.712Z,25.32
2019-01-25T06:30:28.253Z,26.00
2019-01-25T06:31:29.743Z,26.85
2019-01-25T06:32:31.270Z,26.50
2019-01-25T06:33:32.764Z,26.87
2019-01-25T06:34:34.204Z,26.40
2019-01-25T06:35:35.628Z,26.37
2019-01-25T06:36:37.335Z,26.45
2019-01-25T06:37:38.765Z,25.30
2019-01-25T06:38:40.207Z,25.27
2019-01-25T06:39:41.706Z,26.62
2019-01-25T06:40:43.186Z,27.55
2019-01-25T06:41:44.704Z,25.32
2019-01-25T06:42:46.228Z,27.05
2019-01-25T06:43:47.716Z,26.87
2019-01-25T06:44:49.296Z,27.00
2019-01-25T06:45:51.127Z,27.22
2019-01-25T06:46:52.686Z,27.55
2019-01-25T06:47:54.320Z,27.32
2019-01-25T06:48:55.737Z,26.82
2019-01-25T06:49:57.223Z,26.62
2019-01-25T06:50:58.703Z,26.35
2019-01-25T06:52:00.280Z,26.48
2019-01-25T06:53:01.858Z,27.85
2019-01-25T06:54:03.373Z,24.82
2019-01-25T06:55:06.029Z,25.20
2019-01-25T06:56:08.742Z,26.55
2019-01-25T06:57:12.075Z,25.85
2019-01-25T06:58:15.367Z,25.95
2019-01-25T06:59:18.322Z,24.98
2019-01-25T07:00:21.630Z,26.52
2019-01-25T07:01:27.662Z,25.92
2019-01-25T07:02:29.157Z,26.30
2019-01-25T07:03:30.607Z,25.85
2019-01-25T07:04:32.127Z,25.25
2019-01-25T07:05:33.685Z,26.60
2019-01-25T07:06:35.183Z,26.87
2019-01-25T07:07:38.019Z,26.37
2019-01-25T07:08:39.476Z,27.30
2019-01-25T07:09:41.009Z,25.50
2019-01-25T07:10:42.509Z,25.00
2019-01-25T07:11:43.932Z,26.57
2019-01-25T07:12:45.419Z,27.17
2019-01-25T07:13:46.877Z,26.17
2019-01-25T07:15:08.847Z,26.05
2019-01-25T07:16:10.319Z,25.45
2019-01-25T07:17:11.787Z,26.33
2019-01-25T07:18:13.275Z,26.82
2019-01-25T07:19:14.732Z,26.00
2019-01-25T07:20:16.588Z,24.87
2019-01-25T07:21:18.084Z,27.27
2019-01-25T07:22:19.628Z,26.62
2019-01-25T07:23:21.098Z,27.05
2019-01-25T07:24:22.561Z,26.85
2019-01-25T07:25:24.054Z,26.10
2019-01-25T07:26:25.577Z,26.70
2019-01-25T07:27:27.055Z,26.52
2019-01-25T07:28:28.550Z,26.37
2019-01-25T07:29:30.038Z,25.82
2019-01-25T07:30:31.582Z,25.62
2019-01-25T07:31:33.246Z,27.45
2019-01-25T07:32:34.822Z,28.83
2019-01-25T07:33:36.279Z,27.98
2019-01-25T07:34:37.833Z,25.40
2019-01-25T07:35:39.363Z,25.50
2019-01-25T07:36:40.955Z,27.25
2019-01-25T07:37:42.560Z,28.35
2019-01-25T07:38:44.195Z,26.75
2019-01-25T07:39:45.738Z,26.02
2019-01-25T07:40:47.550Z,26.35
2019-01-25T07:41:49.078Z,27.22
2019-01-25T07:42:50.778Z,26.87
2019-01-25T07:43:52.356Z,27.67
2019-01-25T07:44:53.914Z,27.17
2019-01-25T07:45:55.405Z,26.35
2019-01-25T07:46:56.989Z,27.70
2019-01-25T07:47:58.493Z,27.58
2019-01-25T07:49:00.118Z,28.32
2019-01-25T07:50:01.942Z,28.32
2019-01-25T07:51:03.424Z,27.62
2019-01-25T07:52:04.925Z,27.07
2019-01-25T07:53:06.526Z,26.62
2019-01-25T07:54:08.117Z,27.37
2019-01-25T07:55:11.234Z,28.90
2019-01-25T07:56:12.812Z,27.90
2019-01-25T07:57:14.381Z,27.93
2019-01-25T07:58:15.853Z,27.82
2019-01-25T07:59:17.408Z,28.30
2019-01-25T08:00:38.710Z,29.05
2019-01-25T08:01:40.225Z,28.98
2019-01-25T08:02:41.821Z,28.75
2019-01-25T08:03:43.258Z,28.73
2019-01-25T08:04:44.707Z,29.57
2019-01-25T08:05:46.215Z,28.98
2019-01-25T08:06:48.010Z,29.55
2019-01-25T08:07:49.586Z,29.40
2019-01-25T08:08:51.261Z,28.57
2019-01-25T08:09:52.711Z,29.55
2019-01-25T08:10:54.268Z,30.75
2019-01-25T08:11:55.787Z,30.12
2019-01-25T08:12:57.353Z,29.57
2019-01-25T08:13:58.913Z,29.60
2019-01-25T08:15:00.645Z,31.52
2019-01-25T08:16:02.248Z,30.32
2019-01-25T08:17:04.265Z,29.25
2019-01-25T08:18:08.712Z,30.72
2019-01-25T08:19:11.868Z,30.40
2019-01-25T08:20:14.841Z,30.15
2019-01-25T08:21:16.580Z,29.67
2019-01-25T08:22:18.142Z,29.90
2019-01-25T08:23:19.906Z,30.05
2019-01-25T08:24:21.471Z,31.05
2019-01-25T08:25:23.003Z,30.92
2019-01-25T08:26:24.546Z,30.10
2019-01-25T08:27:26.016Z,31.10
2019-01-25T08:28:27.560Z,31.25
2019-01-25T08:29:29.098Z,31.23
2019-01-25T08:30:30.691Z,30.65
2019-01-25T08:31:32.243Z,30.95
2019-01-25T08:32:33.793Z,31.00
2019-01-25T08:33:35.492Z,31.25
2019-01-25T08:34:37.031Z,32.25
2019-01-25T08:35:38.541Z,31.10
2019-01-25T08:36:40.078Z,32.42
2019-01-25T08:37:41.766Z,32.17
2019-01-25T08:38:43.192Z,31.52
2019-01-25T08:39:44.641Z,31.85
2019-01-25T08:40:46.106Z,33.42
2019-01-25T08:41:47.796Z,33.35
2019-01-25T08:42:49.374Z,32.67
2019-01-25T08:43:51.179Z,31.75
2019-01-25T08:44:52.718Z,31.85
2019-01-25T08:45:54.248Z,32.23
2019-01-25T08:46:55.742Z,32.58
2019-01-25T08:47:57.279Z,32.45
2019-01-25T08:48:58.866Z,30.70
2019-01-25T08:50:00.762Z,32.78
2019-01-25T08:51:02.683Z,32.95
2019-01-25T08:52:04.105Z,33.67
2019-01-25T08:53:05.709Z,33.53
2019-01-25T08:54:07.480Z,33.63
2019-01-25T08:55:09.165Z,33.10
2019-01-25T08:56:10.710Z,32.60
2019-01-25T08:57:12.179Z,32.23
2019-01-25T08:58:13.975Z,32.65
2019-01-25T08:59:15.458Z,32.75
2019-01-25T09:00:22.637Z,34.03
2019-01-25T09:01:24.091Z,32.78
2019-01-25T09:02:25.530Z,32.38
2019-01-25T09:03:39.990Z,32.78
2019-01-25T09:04:41.464Z,30.48
2019-01-25T09:05:42.963Z,30.10
2019-01-25T09:06:44.434Z,29.92
2019-01-25T09:07:45.858Z,29.95
2019-01-25T09:08:47.307Z,29.23
2019-01-25T09:09:48.727Z,29.77
2019-01-25T09:10:50.216Z,29.50
2019-01-25T09:11:51.650Z,28.60
2019-01-25T09:12:53.111Z,29.12
2019-01-25T09:13:54.558Z,30.43
2019-01-25T09:14:56.012Z,29.57
2019-01-25T09:15:57.537Z,28.47
2019-01-25T09:16:59.021Z,28.17
2019-01-25T09:18:00.497Z,27.55
2019-01-25T09:19:01.933Z,26.97
2019-01-25T09:20:14.305Z,27.45
2019-01-25T09:21:10.429Z,26.57
2019-01-25T09:22:11.926Z,25.15
2019-01-25T09:23:13.358Z,27.27
2019-01-25T09:24:14.845Z,25.68
2019-01-25T09:25:16.273Z,25.85
2019-01-25T09:26:17.728Z,25.97
2019-01-25T09:27:19.168Z,26.40
2019-01-25T09:28:20.623Z,26.35
2019-01-25T09:29:22.070Z,27.70
2019-01-25T09:30:25.328Z,26.55
2019-01-25T09:31:28.121Z,27.22
2019-01-25T09:32:29.667Z,25.05
2019-01-25T09:33:31.140Z,28.15
2019-01-25T09:34:32.684Z,26.30
2019-01-25T09:35:34.204Z,25.50
2019-01-25T09:36:35.658Z,25.37
2019-01-25T09:37:37.101Z,27.22
2019-01-25T09:38:38.587Z,25.75
2019-01-25T09:39:40.024Z,26.40
2019-01-25T09:40:41.549Z,27.48
2019-01-25T09:41:43.094Z,26.52
2019-01-25T09:42:44.545Z,26.97
2019-01-25T09:43:46.005Z,26.12
2019-01-25T09:44:47.484Z,28.47
2019-01-25T09:45:48.921Z,27.10
2019-01-25T09:46:50.361Z,26.60
2019-01-25T09:47:51.829Z,26.77
2019-01-25T09:48:53.275Z,28.25
2019-01-25T09:49:54.745Z,27.32
2019-01-25T09:50:56.220Z,27.93
2019-01-25T09:51:57.657Z,27.27
2019-01-25T09:52:59.105Z,27.50
2019-01-25T09:54:00.621Z,27.80
2019-01-25T09:55:04.303Z,28.62
2019-01-25T09:56:05.718Z,27.87
2019-01-25T09:57:07.187Z,27.02
2019-01-25T09:58:12.269Z,26.73
2019-01-25T09:59:13.718Z,28.27
2019-01-25T10:00:36.978Z,28.12
2019-01-25T10:01:38.396Z,27.40
2019-01-25T10:02:39.945Z,28.23
2019-01-25T10:03:41.474Z,28.98
2019-01-25T10:04:43.135Z,27.98
2019-01-25T10:05:53.199Z,27.93
2019-01-25T10:06:54.665Z,26.93
2019-01-25T10:07:56.121Z,29.23
2019-01-25T10:08:57.763Z,28.75
2019-01-25T10:09:59.186Z,31.52
2019-01-25T10:11:00.655Z,28.90
2019-01-25T10:12:02.110Z,29.67
2019-01-25T10:13:03.577Z,29.60
2019-01-25T10:14:04.996Z,28.60
2019-01-25T10:15:10.089Z,30.85
2019-01-25T10:16:11.525Z,30.60
2019-01-25T10:17:12.973Z,30.48
2019-01-25T10:18:14.394Z,31.23
2019-01-25T10:19:15.828Z,29.32
2019-01-25T10:20:17.596Z,30.75
2019-01-25T10:21:19.022Z,28.70
2019-01-25T10:22:20.467Z,29.75
2019-01-25T10:23:21.911Z,30.85
2019-01-25T10:24:23.342Z,30.02
2019-01-25T10:25:24.833Z,30.95
2019-01-25T10:26:26.483Z,30.15
2019-01-25T10:27:27.961Z,29.77
2019-01-25T10:28:29.415Z,29.70
2019-01-25T10:29:30.864Z,29.15
2019-01-25T10:30:32.334Z,28.75
2019-01-25T10:31:33.793Z,27.62
2019-01-25T10:32:35.452Z,28.67
2019-01-25T10:33:37.193Z,29.32
2019-01-25T10:34:38.644Z,27.67
2019-01-25T10:35:40.162Z,29.63
2019-01-25T10:36:41.837Z,29.42
2019-01-25T10:37:43.285Z,29.55
2019-01-25T10:38:44.757Z,30.02
2019-01-25T10:39:46.226Z,28.35
2019-01-25T10:40:47.709Z,29.05
2019-01-25T10:41:49.150Z,28.45
2019-01-25T10:42:53.489Z,27.65
2019-01-25T10:43:54.178Z,28.67
2019-01-25T10:44:56.082Z,29.20
2019-01-25T10:45:57.661Z,29.52
2019-01-25T10:46:59.163Z,27.35
2019-01-25T10:48:00.644Z,27.80
2019-01-25T10:49:02.157Z,29.18
2019-01-25T10:50:06.511Z,30.25
2019-01-25T10:51:07.942Z,27.17
2019-01-25T10:52:09.371Z,27.67
2019-01-25T10:53:10.931Z,27.95
2019-01-25T10:54:12.479Z,28.12
2019-01-25T10:55:13.914Z,27.07
2019-01-25T10:56:15.360Z,27.60
2019-01-25T10:57:16.813Z,28.30
2019-01-25T10:58:18.267Z,29.60
2019-01-25T10:59:19.763Z,28.98
2019-01-25T11:00:22.347Z,29.20
2019-01-25T11:01:23.919Z,28.32
2019-01-25T11:02:25.330Z,28.80
2019-01-25T11:03:26.763Z,28.12
2019-01-25T11:04:28.206Z,29.18
2019-01-25T11:05:29.731Z,27.98
2019-01-25T11:06:31.173Z,27.37
2019-01-25T11:07:32.675Z,29.12
2019-01-25T11:08:34.231Z,27.90
2019-01-25T11:09:38.086Z,27.27
2019-01-25T11:10:39.304Z,26.80
2019-01-25T11:11:40.779Z,27.30
2019-01-25T11:12:43.149Z,27.85
2019-01-25T11:13:44.786Z,26.60
2019-01-25T11:14:46.280Z,26.60
2019-01-25T11:15:47.687Z,27.40
2019-01-25T11:16:49.195Z,27.62
2019-01-25T11:17:50.882Z,28.05
2019-01-25T11:18:52.337Z,27.70
2019-01-25T11:19:53.926Z,27.77
2019-01-25T11:20:55.354Z,27.50
2019-01-25T11:21:56.811Z,28.17
2019-01-25T11:22:58.280Z,29.07
2019-01-25T11:23:59.944Z,29.18
2019-01-25T11:25:01.379Z,27.40
2019-01-25T11:26:03.036Z,28.17
2019-01-25T11:27:04.566Z,28.00
2019-01-25T11:28:05.990Z,29.02
2019-01-25T11:29:07.403Z,27.77
2019-01-25T11:30:11.947Z,29.27
2019-01-25T11:31:13.402Z,29.00
2019-01-25T11:32:14.827Z,28.25
2019-01-25T11:33:16.282Z,29.60
2019-01-25T11:34:17.813Z,27.70
2019-01-25T11:35:19.240Z,28.67
2019-01-25T11:36:20.677Z,28.98
2019-01-25T11:37:22.133Z,28.23
2019-01-25T11:38:23.774Z,27.30
2019-01-25T11:39:25.276Z,29.07
2019-01-25T11:40:32.785Z,27.98
2019-01-25T11:41:34.245Z,29.27
2019-01-25T11:42:35.725Z,27.40
2019-01-25T11:43:37.219Z,27.70
2019-01-25T11:44:58.539Z,29.00
2019-01-25T11:45:59.995Z,27.10
2019-01-25T11:47:01.452Z,28.60
2019-01-25T11:48:06.146Z,27.73
2019-01-25T11:49:07.687Z,28.40
2019-01-25T11:50:17.502Z,29.15
2019-01-25T11:51:19.885Z,29.02
2019-01-25T11:52:25.098Z,26.85
2019-01-25T11:53:25.028Z,28.65
2019-01-25T11:54:26.540Z,28.50
2019-01-25T11:55:28.015Z,29.32
2019-01-25T11:56:29.740Z,28.95
2019-01-25T11:57:31.170Z,28.35
2019-01-25T11:58:32.720Z,28.57
2019-01-25T11:59:34.173Z,26.25
2019-01-25T12:00:37.418Z,27.20
2019-01-25T12:01:38.841Z,27.73
2019-01-25T12:02:40.350Z,27.93
2019-01-25T12:03:41.831Z,28.30
2019-01-25T12:04:43.389Z,26.23
2019-01-25T12:05:44.842Z,26.23
2019-01-25T12:06:46.307Z,27.87
2019-01-25T12:07:47.759Z,26.73
2019-01-25T12:08:49.548Z,28.07
2019-01-25T12:09:51.030Z,26.48
2019-01-25T12:10:52.519Z,27.22
2019-01-25T12:11:53.913Z,28.10
2019-01-25T12:12:55.373Z,27.35
2019-01-25T12:13:56.898Z,26.73
2019-01-25T12:14:58.363Z,26.07
2019-01-25T12:15:59.962Z,27.48
2019-01-25T12:17:01.437Z,28.92
2019-01-25T12:18:03.217Z,28.30
2019-01-25T12:19:04.781Z,27.32
2019-01-25T12:20:15.239Z,27.65
2019-01-25T12:21:16.716Z,28.73
2019-01-25T12:22:18.232Z,29.00
2019-01-25T12:23:19.781Z,28.55
2019-01-25T12:24:21.236Z,30.40
2019-01-25T12:25:22.904Z,29.57
2019-01-25T12:26:24.376Z,27.30
2019-01-25T12:27:25.824Z,27.93
2019-01-25T12:28:27.291Z,27.50
2019-01-25T12:29:28.767Z,28.05
2019-01-25T12:30:37.610Z,28.17
2019-01-25T12:31:35.918Z,27.67
2019-01-25T12:32:37.344Z,27.15
2019-01-25T12:33:38.815Z,27.70
2019-01-25T12:34:40.257Z,27.93
2019-01-25T12:35:41.711Z,27.95
2019-01-25T12:36:43.193Z,27.87
2019-01-25T12:37:44.694Z,27.32
2019-01-25T12:38:47.546Z,28.27
2019-01-25T12:39:49.238Z,26.95
2019-01-25T12:40:50.897Z,28.07
2019-01-25T12:41:52.489Z,26.40
2019-01-25T12:42:53.948Z,25.88
2019-01-25T12:43:55.471Z,26.55
2019-01-25T12:44:56.932Z,25.92
2019-01-25T12:45:58.481Z,26.07
2019-01-25T12:46:59.937Z,25.85
2019-01-25T12:48:01.376Z,25.15
2019-01-25T12:49:02.883Z,24.90
2019-01-25T12:50:08.014Z,24.25
2019-01-25T12:51:13.182Z,23.30
2019-01-25T12:52:14.637Z,24.37
2019-01-25T12:53:16.510Z,25.05
2019-01-25T12:54:18.387Z,25.77
2019-01-25T12:55:19.839Z,23.52
2019-01-25T12:56:21.348Z,24.25
2019-01-25T12:57:22.910Z,25.88
2019-01-25T12:58:24.555Z,24.98
2019-01-25T12:59:25.986Z,23.20
2019-01-25T13:00:29.304Z,24.20
2019-01-25T13:01:35.023Z,25.55
2019-01-25T13:02:34.257Z,25.40
2019-01-25T13:03:35.695Z,26.12
2019-01-25T13:04:37.158Z,24.25
2019-01-25T13:05:38.750Z,24.52
2019-01-25T13:06:40.201Z,25.95
2019-01-25T13:07:41.655Z,25.30
2019-01-25T13:08:43.107Z,24.60
2019-01-25T13:09:44.624Z,24.27
2019-01-25T13:10:46.057Z,25.82
2019-01-25T13:11:47.543Z,23.83
2019-01-25T13:12:49.043Z,24.72
2019-01-25T13:13:50.505Z,23.25
2019-01-25T13:14:52.008Z,25.27
2019-01-25T13:15:53.658Z,24.95
2019-01-25T13:16:55.259Z,25.32
2019-01-25T13:17:56.850Z,24.50